Time;durP1;ratioP1;P1;durP2;ratioP2;P2;SDS_P1;SDS_P2;PMS_P1;PMS_P2;Temp;Humidity;BMP_temperature;BMP_pressure;BME280_temperature;BME280_humidity;BME280_pressure;Samples;Min_cycle;Max_cycle;Signal;HPM_P1;HPM_P2
2023/07/12 00:01:39;;;;;;;0.50;0.50;;;22.30;60.90;;;;;;6266634;28;20068;-70
2023/07/12 00:04:40;;;;;;;0.60;0.60;;;22.30;60.90;;;;;;6266833;28;20029;-70
2023/07/12 00:07:41;;;;;;;0.60;0.60;;;22.30;60.90;;;;;;6267336;28;20032;-70
2023/07/12 00:10:41;;;;;;;0.85;0.73;;;22.30;60.90;;;;;;6266707;28;20095;-70
2023/07/12 00:13:42;;;;;;;0.52;0.52;;;22.30;60.90;;;;;;6268604;28;20044;-70
2023/07/12 00:16:42;;;;;;;0.60;0.60;;;22.30;60.90;;;;;;6271268;28;20021;-70
2023/07/12 00:19:44;;;;;;;0.70;0.60;;;22.30;60.90;;;;;;6271165;28;20013;-70
2023/07/12 00:22:45;;;;;;;0.63;0.63;;;22.30;60.90;;;;;;6270986;28;20044;-70
2023/07/12 00:25:47;;;;;;;0.70;0.70;;;22.30;60.90;;;;;;6270924;28;20025;-70
2023/07/12 00:28:48;;;;;;;0.60;0.60;;;22.30;60.90;;;;;;6253157;28;20068;-70
2023/07/12 00:31:49;;;;;;;1.45;0.80;;;22.30;60.90;;;;;;6270545;28;20048;-71
2023/07/12 00:34:49;;;;;;;0.70;0.60;;;22.30;60.90;;;;;;6270776;28;20033;-70
2023/07/12 00:37:56;;;;;;;0.77;0.77;;;22.30;60.90;;;;;;6271007;28;20024;-70
2023/07/12 00:41:07;;;;;;;0.60;0.60;;;22.30;60.90;;;;;;6270817;28;20616;-70
2023/07/12 00:44:13;;;;;;;0.60;0.43;;;22.30;60.90;;;;;;6270623;28;20476;-70
2023/07/12 00:47:14;;;;;;;0.50;0.50;;;22.30;60.90;;;;;;6269886;28;20021;-70
2023/07/12 00:50:19;;;;;;;0.40;0.40;;;22.30;60.90;;;;;;6270290;28;20041;-70
2023/07/12 00:53:23;;;;;;;0.93;0.60;;;22.30;60.90;;;;;;6270258;28;20029;-70
2023/07/12 00:56:25;;;;;;;0.85;0.75;;;22.30;60.90;;;;;;6270251;28;20115;-70
2023/07/12 00:59:29;;;;;;;0.50;0.50;;;22.30;60.90;;;;;;6270463;28;20033;-70
2023/07/12 01:02:30;;;;;;;0.68;0.65;;;22.30;60.90;;;;;;6270016;28;20408;-70
2023/07/12 01:05:31;;;;;;;0.70;0.60;;;22.30;60.90;;;;;;6270087;28;20036;-70
2023/07/12 01:08:32;;;;;;;0.60;0.60;;;22.30;60.90;;;;;;6269956;28;20452;-70
2023/07/12 01:11:33;;;;;;;0.60;0.60;;;22.30;60.90;;;;;;6270256;28;20048;-70
2023/07/12 01:14:34;;;;;;;0.60;0.60;;;22.30;60.90;;;;;;6269932;28;20224;-70
2023/07/12 01:17:34;;;;;;;0.50;0.50;;;22.30;60.90;;;;;;6270047;28;20025;-70
2023/07/12 01:20:38;;;;;;;0.63;0.60;;;22.30;60.90;;;;;;6269029;28;20025;-70
2023/07/12 01:23:40;;;;;;;0.60;0.60;;;22.30;60.90;;;;;;6269440;28;20037;-70
2023/07/12 01:26:44;;;;;;;1.02;0.80;;;22.30;60.90;;;;;;6268436;28;20507;-70
2023/07/12 01:29:46;;;;;;;0.77;0.70;;;22.30;60.90;;;;;;6269078;28;20055;-70
2023/07/12 01:32:47;;;;;;;0.50;0.50;;;22.30;60.90;;;;;;6269588;28;20264;-70
2023/07/12 01:35:47;;;;;;;0.57;0.52;;;22.30;60.90;;;;;;6269543;28;20480;-70
2023/07/12 01:38:50;;;;;;;0.90;0.70;;;22.30;60.90;;;;;;6269157;28;20036;-70
2023/07/12 01:41:50;;;;;;;0.50;0.50;;;22.30;60.90;;;;;;6269573;28;20242;-70
2023/07/12 01:44:51;;;;;;;0.82;0.60;;;22.30;60.90;;;;;;6268750;28;20534;-70
2023/07/12 01:47:51;;;;;;;0.57;0.57;;;22.30;60.90;;;;;;6269183;28;20025;-70
2023/07/12 01:50:52;;;;;;;0.70;0.52;;;22.30;60.90;;;;;;6269449;28;20051;-70
2023/07/12 01:53:53;;;;;;;0.63;0.63;;;22.30;60.90;;;;;;6268821;28;20040;-70
2023/07/12 01:56:53;;;;;;;0.70;0.63;;;22.30;60.90;;;;;;6268723;28;20029;-70
2023/07/12 01:59:54;;;;;;;0.68;0.60;;;22.30;60.90;;;;;;6268844;28;20100;-70
2023/07/12 02:02:54;;;;;;;0.47;0.47;;;22.30;60.90;;;;;;6268918;28;20537;-70
2023/07/12 02:05:56;;;;;;;0.60;0.60;;;22.30;60.90;;;;;;6268564;28;20055;-70
2023/07/12 02:08:56;;;;;;;0.90;0.45;;;22.30;60.90;;;;;;6268465;28;20029;-70
2023/07/12 02:11:57;;;;;;;0.60;0.60;;;22.30;60.90;;;;;;6268524;28;20483;-70
2023/07/12 02:14:57;;;;;;;0.60;0.60;;;22.30;61.00;;;;;;6267771;28;20032;-70
2023/07/12 02:18:01;;;;;;;0.93;0.50;;;22.30;60.90;;;;;;6268389;28;20060;-70
2023/07/12 02:21:01;;;;;;;0.50;0.50;;;22.30;60.90;;;;;;6267762;28;20020;-70
2023/07/12 02:24:02;;;;;;;0.57;0.57;;;22.30;60.90;;;;;;6268338;28;20033;-70
2023/07/12 02:27:03;;;;;;;1.02;0.60;;;22.30;60.90;;;;;;6268078;28;20348;-70
2023/07/12 02:30:10;;;;;;;0.60;0.60;;;22.30;60.90;;;;;;6268207;28;20049;-70
2023/07/12 02:33:11;;;;;;;0.80;0.60;;;22.30;60.90;;;;;;6268058;28;20072;-70
2023/07/12 02:36:11;;;;;;;0.65;0.65;;;22.30;61.00;;;;;;6267778;28;20052;-70
2023/07/12 02:39:12;;;;;;;1.30;0.70;;;22.30;60.90;;;;;;6250325;28;20047;-70
2023/07/12 02:42:13;;;;;;;0.68;0.68;;;22.30;60.90;;;;;;6267789;28;20028;-70
2023/07/12 02:45:13;;;;;;;0.52;0.52;;;22.30;61.00;;;;;;6267972;28;20021;-70
2023/07/12 02:48:14;;;;;;;0.63;0.60;;;22.30;60.90;;;;;;6267164;28;20028;-70
2023/07/12 02:51:14;;;;;;;0.57;0.57;;;22.30;60.90;;;;;;6267932;28;20021;-70
2023/07/12 02:54:15;;;;;;;0.80;0.70;;;22.30;60.90;;;;;;6267542;28;20033;-70
2023/07/12 02:57:16;;;;;;;0.50;0.50;;;22.30;61.00;;;;;;6267815;28;20106;-70
2023/07/12 03:00:18;;;;;;;0.43;0.40;;;22.30;60.90;;;;;;6267385;28;20532;-70
2023/07/12 03:03:18;;;;;;;0.43;0.40;;;22.30;61.00;;;;;;6267673;28;20030;-70
2023/07/12 03:06:19;;;;;;;0.50;0.45;;;22.30;61.00;;;;;;6267299;28;20036;-70
2023/07/12 03:09:20;;;;;;;0.60;0.60;;;22.30;61.00;;;;;;6267489;28;20061;-70
2023/07/12 03:12:20;;;;;;;0.60;0.60;;;22.30;60.90;;;;;;6267426;28;20029;-70
2023/07/12 03:15:21;;;;;;;0.50;0.50;;;22.30;61.00;;;;;;6267049;28;20017;-70
2023/07/12 03:18:22;;;;;;;0.70;0.57;;;22.30;60.90;;;;;;6267453;28;20025;-70
2023/07/12 03:21:22;;;;;;;0.60;0.60;;;22.30;61.00;;;;;;6267163;28;20143;-70
2023/07/12 03:24:23;;;;;;;0.63;0.60;;;22.30;61.00;;;;;;6267191;28;20037;-70
2023/07/12 03:27:23;;;;;;;0.68;0.60;;;22.30;61.00;;;;;;6267232;28;20032;-70
2023/07/12 03:30:24;;;;;;;0.82;0.70;;;22.30;61.00;;;;;;6267018;28;20214;-70
2023/07/12 03:33:25;;;;;;;0.75;0.70;;;22.30;61.00;;;;;;6267221;28;20021;-70
2023/07/12 03:36:30;;;;;;;0.93;0.70;;;22.30;61.00;;;;;;6266843;28;20025;-70
2023/07/12 03:39:31;;;;;;;0.65;0.65;;;22.30;61.00;;;;;;6267431;28;20060;-70
2023/07/12 03:42:32;;;;;;;0.80;0.80;;;22.30;61.00;;;;;;6267456;28;20021;-70
2023/07/12 03:45:32;;;;;;;0.65;0.60;;;22.30;61.00;;;;;;6267169;28;20399;-70
2023/07/12 03:48:33;;;;;;;0.60;0.60;;;22.30;61.00;;;;;;6268853;28;20025;-70
2023/07/12 03:51:35;;;;;;;0.68;0.68;;;22.30;61.00;;;;;;6272235;28;20041;-70
2023/07/12 03:54:35;;;;;;;0.60;0.60;;;22.30;61.00;;;;;;6271867;28;20490;-70
2023/07/12 03:57:41;;;;;;;1.15;0.60;;;22.30;61.00;;;;;;6271858;28;20029;-70
2023/07/12 04:00:47;;;;;;;0.88;0.75;;;22.30;61.00;;;;;;6272146;28;20116;-70
2023/07/12 04:03:48;;;;;;;0.57;0.50;;;22.30;61.00;;;;;;6271435;28;20483;-70
2023/07/12 04:06:48;;;;;;;0.60;0.60;;;22.30;61.00;;;;;;6271390;28;20017;-70
2023/07/12 04:09:49;;;;;;;0.60;0.55;;;22.30;61.40;;;;;;6271338;28;20490;-71
2023/07/12 04:12:49;;;;;;;0.70;0.70;;;22.30;61.00;;;;;;6271992;28;20033;-70
2023/07/12 04:15:53;;;;;;;0.50;0.50;;;22.30;61.00;;;;;;6271402;28;20033;-70
2023/07/12 04:18:54;;;;;;;0.80;0.70;;;22.30;61.00;;;;;;6271405;28;20017;-70
2023/07/12 04:21:54;;;;;;;0.60;0.60;;;22.30;61.80;;;;;;6270769;28;20372;-70
2023/07/12 04:24:55;;;;;;;0.60;0.50;;;22.30;61.00;;;;;;6271671;28;20021;-70
2023/07/12 04:27:55;;;;;;;0.57;0.57;;;22.30;61.00;;;;;;6270697;28;20440;-70
2023/07/12 04:31:00;;;;;;;0.80;0.77;;;22.30;61.00;;;;;;6270936;28;20072;-70
2023/07/12 04:34:01;;;;;;;;;;;22.30;61.00;;;;;;6271441;28;20518;-70
2023/07/12 04:37:03;;;;;;;0.60;0.60;;;22.30;61.00;;;;;;6271014;28;19906;-70
2023/07/12 04:40:04;;;;;;;0.75;0.63;;;22.30;61.00;;;;;;6270668;28;20036;-70
2023/07/12 04:43:05;;;;;;;0.63;0.63;;;22.30;61.00;;;;;;6270733;28;20021;-70
2023/07/12 04:46:06;;;;;;;0.60;0.60;;;22.30;61.00;;;;;;6270445;28;20087;-71
2023/07/12 04:49:08;;;;;;;0.82;0.75;;;22.30;61.00;;;;;;6270460;28;20037;-70
2023/07/12 04:52:11;;;;;;;0.73;0.57;;;22.30;61.10;;;;;;6270068;28;20174;-70
2023/07/12 04:55:24;;;;;;;0.50;0.50;;;22.30;61.00;;;;;;6270453;28;20029;-70
2023/07/12 04:58:26;;;;;;;0.60;0.50;;;22.30;61.00;;;;;;6270611;28;20021;-70
2023/07/12 05:01:26;;;;;;;0.75;0.70;;;22.30;61.00;;;;;;6256144;28;21083;-70
2023/07/12 05:04:27;;;;;;;0.60;0.60;;;22.30;61.00;;;;;;6258233;28;20031;-70
2023/07/12 05:07:31;;;;;;;0.70;0.65;;;22.30;61.00;;;;;;6268482;28;20033;-70
2023/07/12 05:10:33;;;;;;;0.60;0.50;;;22.30;61.00;;;;;;6269523;28;20375;-70
2023/07/12 05:13:34;;;;;;;0.52;0.50;;;22.30;61.00;;;;;;6268595;28;20053;-70
2023/07/12 05:16:34;;;;;;;0.90;0.60;;;22.30;61.00;;;;;;6269235;28;20029;-70
2023/07/12 05:19:35;;;;;;;0.50;0.50;;;22.30;61.00;;;;;;6268450;28;20017;-70
2023/07/12 05:22:36;;;;;;;0.80;0.70;;;22.30;61.00;;;;;;6267844;28;20013;-70
2023/07/12 05:25:36;;;;;;;0.50;0.50;;;22.30;61.10;;;;;;6268073;28;20110;-70
2023/07/12 05:28:37;;;;;;;1.00;0.70;;;22.30;61.00;;;;;;6268328;28;20029;-70
2023/07/12 05:31:38;;;;;;;0.85;0.75;;;22.30;61.00;;;;;;6268376;28;20052;-70
2023/07/12 05:34:39;;;;;;;0.70;0.60;;;22.30;61.10;;;;;;6268187;28;20033;-70
2023/07/12 05:37:39;;;;;;;0.60;0.60;;;22.30;61.00;;;;;;6267990;28;20036;-70
2023/07/12 05:40:40;;;;;;;0.63;0.57;;;22.30;61.00;;;;;;6268520;28;20033;-70
2023/07/12 05:43:41;;;;;;;0.70;0.65;;;22.30;61.00;;;;;;6268126;28;20051;-70
2023/07/12 05:46:42;;;;;;;0.50;0.50;;;22.30;61.10;;;;;;6268708;28;20362;-70
2023/07/12 05:49:42;;;;;;;0.80;0.60;;;22.30;61.00;;;;;;6268043;28;20037;-70
2023/07/12 05:52:43;;;;;;;0.80;0.77;;;22.30;61.00;;;;;;6268379;28;20020;-69
2023/07/12 05:55:44;;;;;;;2.33;1.33;;;22.40;61.10;;;;;;6265881;28;20086;-70
2023/07/12 05:58:45;;;;;;;2.05;1.50;;;22.40;61.10;;;;;;6261548;28;20104;-70
2023/07/12 06:01:45;;;;;;;1.42;1.20;;;22.40;61.20;;;;;;6258314;28;20064;-70
2023/07/12 06:04:46;;;;;;;1.75;1.25;;;22.30;61.00;;;;;;6269796;28;20079;-70
2023/07/12 06:07:46;;;;;;;1.33;0.95;;;22.40;61.20;;;;;;6266239;28;20017;-69
2023/07/12 06:10:47;;;;;;;1.60;0.85;;;22.40;61.30;;;;;;6250556;28;20183;-70
2023/07/12 06:13:48;;;;;;;1.60;1.20;;;22.40;61.20;;;;;;6261562;28;20032;-70
2023/07/12 06:16:49;;;;;;;2.63;1.10;;;22.40;61.20;;;;;;6270208;28;20553;-70
2023/07/12 06:19:49;;;;;;;1.58;1.20;;;22.30;61.20;;;;;;6269033;28;20024;-70
2023/07/12 06:22:50;;;;;;;1.17;0.90;;;22.40;61.20;;;;;;6269064;28;20062;-70
2023/07/12 06:25:51;;;;;;;1.63;1.23;;;22.40;61.30;;;;;;6269688;28;20434;-70
2023/07/12 06:28:51;;;;;;;1.40;1.20;;;22.30;61.20;;;;;;6269062;28;20072;-70
2023/07/12 06:31:54;;;;;;;1.80;1.17;;;22.40;61.30;;;;;;6269001;28;20053;-70
2023/07/12 06:34:54;;;;;;;1.45;1.17;;;22.30;61.20;;;;;;6268687;28;20100;-70
2023/07/12 06:37:55;;;;;;;1.30;1.10;;;22.30;61.20;;;;;;6269081;28;20159;-70
2023/07/12 06:40:56;;;;;;;1.60;1.10;;;22.40;61.30;;;;;;6269076;28;20483;-70
2023/07/12 06:43:56;;;;;;;1.65;1.33;;;22.30;61.20;;;;;;6250476;28;20028;-70
2023/07/12 06:46:57;;;;;;;1.73;1.45;;;22.40;61.30;;;;;;6268921;28;20029;-70
2023/07/12 06:49:58;;;;;;;1.95;1.38;;;22.30;61.20;;;;;;6268447;28;20079;-70
2023/07/12 06:52:58;;;;;;;2.50;1.77;;;22.30;61.20;;;;;;6268665;28;20036;-70
2023/07/12 06:55:59;;;;;;;2.53;1.50;;;22.40;61.30;;;;;;6268216;28;20111;-71
2023/07/12 06:58:59;;;;;;;1.85;1.45;;;22.40;61.30;;;;;;6268132;28;20092;-69
2023/07/12 07:02:00;;;;;;;1.83;1.38;;;22.40;61.40;;;;;;6268687;28;20222;-70
2023/07/12 07:05:01;;;;;;;2.13;1.67;;;22.40;61.30;;;;;;6268736;28;20033;-70
2023/07/12 07:08:03;;;;;;;1.85;1.67;;;22.30;61.20;;;;;;6268564;28;20017;-70
2023/07/12 07:11:03;;;;;;;2.40;1.50;;;22.30;61.30;;;;;;6268582;28;20125;-70
2023/07/12 07:14:04;;;;;;;1.80;1.38;;;22.30;61.20;;;;;;6268780;28;20021;-70
2023/07/12 07:17:07;;;;;;;1.60;1.35;;;22.40;61.30;;;;;;6268353;28;20145;-70
2023/07/12 07:20:08;;;;;;;1.45;1.30;;;22.30;61.30;;;;;;6268656;28;20086;-70
2023/07/12 07:23:10;;;;;;;1.88;1.45;;;22.40;61.30;;;;;;6269523;28;20443;-70
2023/07/12 07:26:11;;;;;;;2.10;1.70;;;22.30;61.30;;;;;;6273282;28;20060;-70
2023/07/12 07:29:11;;;;;;;3.25;1.70;;;22.40;61.40;;;;;;6273616;28;20104;-70
2023/07/12 07:32:12;;;;;;;2.72;1.83;;;22.30;61.30;;;;;;6273508;28;20389;-70
2023/07/12 07:35:13;;;;;;;2.00;1.60;;;22.30;61.30;;;;;;6255417;28;20025;-70
2023/07/12 07:38:13;;;;;;;2.55;1.90;;;22.40;61.40;;;;;;6273314;28;20533;-70
2023/07/12 07:41:15;;;;;;;2.55;1.85;;;22.40;61.40;;;;;;6269372;28;20029;-69
2023/07/12 07:44:16;;;;;;;2.45;1.60;;;22.40;61.40;;;;;;6269402;28;20500;-69
2023/07/12 07:47:17;;;;;;;2.80;1.70;;;22.40;61.40;;;;;;6274558;28;20106;-69
2023/07/12 07:50:20;;;;;;;2.85;2.00;;;22.40;61.40;;;;;;6273720;28;20029;-71
2023/07/12 07:53:20;;;;;;;10.80;2.00;;;22.40;61.40;;;;;;6274421;28;20057;-70
2023/07/12 07:56:21;;;;;;;3.35;2.05;;;22.50;61.90;;;;;;6267418;28;20032;-70
2023/07/12 07:59:22;;;;;;;2.42;1.90;;;22.50;61.50;;;;;;6256768;28;20025;-70
2023/07/12 08:02:23;;;;;;;2.03;1.42;;;22.50;61.60;;;;;;6274638;28;20025;-71
2023/07/12 08:05:23;;;;;;;4.82;1.80;;;22.50;61.50;;;;;;6273800;28;20061;-71
2023/07/12 08:08:24;;;;;;;2.70;1.85;;;22.50;61.80;;;;;;6274400;28;20029;-71
2023/07/12 08:11:25;;;;;;;1.90;1.60;;;22.40;61.70;;;;;;6257217;28;20029;-71
2023/07/12 08:14:26;;;;;;;2.60;1.70;;;22.40;61.70;;;;;;6274278;28;20029;-71
2023/07/12 08:17:27;;;;;;;3.15;1.65;;;22.40;61.70;;;;;;6256866;28;20029;-72
2023/07/12 08:20:27;;;;;;;2.53;1.88;;;22.40;61.70;;;;;;6272280;28;20426;-71
2023/07/12 08:23:29;;;;;;;2.13;1.45;;;22.40;61.70;;;;;;6273868;28;20032;-71
2023/07/12 08:26:30;;;;;;;3.38;1.80;;;22.40;61.70;;;;;;6273612;28;20059;-71
2023/07/12 08:29:30;;;;;;;2.38;1.67;;;22.40;61.70;;;;;;6268885;28;20025;-71
2023/07/12 08:32:33;;;;;;;2.28;1.55;;;22.40;61.70;;;;;;6273922;28;20379;-71
2023/07/12 08:35:34;;;;;;;3.00;1.73;;;22.40;61.60;;;;;;6273505;28;20032;-71
2023/07/12 08:38:34;;;;;;;3.72;1.70;;;22.40;61.60;;;;;;6273380;28;20025;-71
2023/07/12 08:41:40;;;;;;;2.17;1.50;;;22.40;61.60;;;;;;6273073;28;20053;-71
2023/07/12 08:44:41;;;;;;;1.60;1.40;;;22.40;61.70;;;;;;6272857;28;20361;-71
2023/07/12 08:47:43;;;;;;;1.90;1.50;;;22.40;61.60;;;;;;6273244;28;20439;-71
2023/07/12 08:50:45;;;;;;;2.03;1.65;;;22.40;61.60;;;;;;6272970;28;20546;-71
2023/07/12 08:53:47;;;;;;;1.95;1.50;;;22.40;61.60;;;;;;6273357;28;20400;-70
2023/07/12 08:56:49;;;;;;;1.60;1.38;;;22.40;61.60;;;;;;6265975;28;20444;-70
2023/07/12 09:00:05;;;;;;;1.73;1.40;;;22.40;61.60;;;;;;6273163;28;20074;-70
2023/07/12 09:03:06;;;;;;;2.45;1.60;;;22.40;61.60;;;;;;6271620;28;20426;-71
2023/07/12 09:06:14;;;;;;;2.50;1.30;;;22.40;61.60;;;;;;6249137;28;20037;-71
2023/07/12 09:09:17;;;;;;;2.08;1.42;;;22.40;61.60;;;;;;6261079;28;20040;-70
2023/07/12 09:12:31;;;;;;;3.10;1.60;;;22.40;61.60;;;;;;6271313;28;20025;-71
2023/07/12 09:15:43;;;;;;;2.13;1.50;;;22.40;61.60;;;;;;6272722;28;20066;-70
2023/07/12 09:18:46;;;;;;;2.15;1.42;;;22.40;61.60;;;;;;6271954;28;20025;-71
2023/07/12 09:22:14;;;;;;;1.77;1.40;;;22.40;61.60;;;;;;6252323;28;20067;-70
2023/07/12 09:25:24;;;;;;;2.05;1.55;;;22.40;61.60;;;;;;6254879;28;20037;-72
2023/07/12 09:28:24;;;;;;;1.50;1.35;;;22.40;61.60;;;;;;6272546;28;20364;-71
2023/07/12 09:31:29;;;;;;;4.18;1.88;;;22.40;61.60;;;;;;6271721;28;20057;-71
2023/07/12 09:34:37;;;;;;;1.63;1.30;;;22.40;61.60;;;;;;6271821;28;20487;-71
2023/07/12 09:37:39;;;;;;;2.60;1.52;;;22.40;61.60;;;;;;6271854;28;20025;-71
2023/07/12 09:40:43;;;;;;;2.08;1.50;;;22.40;61.60;;;;;;6256746;28;20047;-71
2023/07/12 09:43:56;;;;;;;2.03;1.60;;;22.40;61.60;;;;;;6271876;28;20450;-71
2023/07/12 09:47:07;;;;;;;1.55;1.30;;;22.40;61.60;;;;;;6265527;28;20025;-71
2023/07/12 09:50:13;;;;;;;1.25;1.15;;;22.40;61.60;;;;;;6261351;28;20033;-71
2023/07/12 09:53:36;;;;;;;2.33;1.33;;;22.40;61.60;;;;;;6271528;28;20025;-71
2023/07/12 09:56:47;;;;;;;2.15;1.23;;;22.40;61.60;;;;;;6271046;28;20067;-71
2023/07/12 10:00:02;;;;;;;1.45;1.25;;;22.40;61.60;;;;;;6271732;28;20057;-71
2023/07/12 10:03:21;;;;;;;1.88;1.38;;;22.40;62.40;;;;;;6271362;28;20027;-71
2023/07/12 10:06:40;;;;;;;1.98;1.38;;;22.40;61.60;;;;;;6261899;28;20495;-71
2023/07/12 10:09:45;;;;;;;1.73;1.35;;;22.40;61.60;;;;;;6271013;28;20729;-71
2023/07/12 10:13:06;;;;;;;2.42;1.50;;;22.40;61.70;;;;;;6271617;28;20028;-71
2023/07/12 10:16:30;;;;;;;2.10;1.33;;;22.40;61.60;;;;;;6247699;28;20830;-71
2023/07/12 10:19:37;;;;;;;1.70;1.20;;;22.40;61.60;;;;;;6249278;28;20082;-72
2023/07/12 10:22:41;;;;;;;1.70;1.50;;;22.40;61.60;;;;;;6271426;28;20035;-71
2023/07/12 10:25:46;;;;;;;1.38;1.27;;;22.40;61.60;;;;;;6270893;28;20091;-71
2023/07/12 10:29:07;;;;;;;1.92;1.48;;;22.40;61.60;;;;;;6270812;28;20028;-70
2023/07/12 10:32:21;;;;;;;1.77;1.40;;;22.40;61.60;;;;;;6271039;28;20052;-71
2023/07/12 10:36:06;;;;;;;1.63;1.27;;;22.40;61.60;;;;;;6270502;28;20502;-71
2023/07/12 10:39:07;;;;;;;1.40;1.30;;;22.40;61.60;;;;;;6108674;28;20120;-71
2023/07/12 10:42:20;;;;;;;1.50;1.30;;;22.40;61.60;;;;;;6277921;28;20040;-71
2023/07/12 10:45:25;;;;;;;2.08;1.40;;;22.40;61.60;;;;;;6274239;28;20116;-73
2023/07/12 10:48:28;;;;;;;2.17;1.48;;;22.40;61.60;;;;;;6270632;28;20113;-71
2023/07/12 10:51:39;;;;;;;1.85;1.40;;;22.40;61.60;;;;;;6265679;28;20029;-70
2023/07/12 10:54:51;;;;;;;1.80;1.30;;;22.40;61.60;;;;;;6267051;28;20029;-71
2023/07/12 10:57:52;;;;;;;1.50;1.30;;;22.40;61.60;;;;;;6269915;28;20039;-71
2023/07/12 11:00:58;;;;;;;1.40;1.30;;;22.40;61.60;;;;;;6269714;28;20047;-71
2023/07/12 11:04:11;;;;;;;1.30;1.20;;;22.40;61.60;;;;;;6270033;28;20028;-71
2023/07/12 11:07:14;;;;;;;2.10;1.55;;;22.40;61.60;;;;;;6269823;28;20067;-71
2023/07/12 11:10:22;;;;;;;1.23;1.13;;;22.40;61.60;;;;;;6269836;28;20102;-71
2023/07/12 11:13:32;;;;;;;2.08;1.42;;;22.40;61.60;;;;;;6270753;28;20031;-71
2023/07/12 11:17:22;;;;;;;2.45;1.25;;;22.40;61.60;;;;;;6269828;28;20033;-71
2023/07/12 11:20:25;;;;;;;1.40;1.08;;;22.40;61.60;;;;;;6186926;28;20441;-71
2023/07/12 11:23:28;;;;;;;1.40;1.30;;;22.40;61.60;;;;;;6182618;28;20031;-71
2023/07/12 11:26:33;;;;;;;1.67;1.20;;;22.40;61.60;;;;;;6260093;28;20518;-71
2023/07/12 11:29:36;;;;;;;1.10;1.00;;;22.40;61.60;;;;;;6270325;28;20112;-71
2023/07/12 11:32:38;;;;;;;1.92;1.40;;;22.40;61.60;;;;;;6270148;28;20041;-71
2023/07/12 11:35:44;;;;;;;2.17;1.20;;;22.40;61.60;;;;;;6269909;28;20040;-71
2023/07/12 11:38:48;;;;;;;1.77;1.35;;;22.40;61.60;;;;;;6270024;28;20021;-71
2023/07/12 11:41:59;;;;;;;1.43;1.30;;;22.40;61.60;;;;;;6269810;28;20028;-71
2023/07/12 11:45:06;;;;;;;1.23;1.13;;;22.40;61.60;;;;;;6269931;28;20094;-71
2023/07/12 11:48:06;;;;;;;1.50;1.20;;;22.40;61.60;;;;;;6251212;28;20021;-71
2023/07/12 11:51:15;;;;;;;1.70;1.40;;;22.40;61.60;;;;;;6268981;28;20077;-70
2023/07/12 11:54:22;;;;;;;2.22;1.33;;;22.40;61.60;;;;;;6270125;28;20013;-71
2023/07/12 11:57:23;;;;;;;1.42;1.20;;;22.40;61.60;;;;;;6254624;28;20034;-71
2023/07/12 12:00:28;;;;;;;1.88;1.25;;;22.40;61.60;;;;;;6269302;28;20029;-71
2023/07/12 12:03:29;;;;;;;1.63;1.38;;;22.40;61.60;;;;;;6270533;28;20112;-71
2023/07/12 12:06:30;;;;;;;1.30;1.10;;;22.40;61.60;;;;;;6269426;28;20021;-71
2023/07/12 12:09:34;;;;;;;1.17;1.08;;;22.40;61.60;;;;;;6269758;28;20021;-71
2023/07/12 12:12:34;;;;;;;1.30;1.17;;;22.40;61.60;;;;;;6273488;28;20059;-71
2023/07/12 12:15:46;;;;;;;1.63;1.33;;;22.40;61.60;;;;;;6273741;28;20028;-71
2023/07/12 12:18:57;;;;;;;1.58;1.17;;;22.40;61.60;;;;;;6257324;28;20039;-71
2023/07/12 12:22:20;;;;;;;1.20;1.10;;;22.40;61.60;;;;;;6273072;28;20545;-71
2023/07/12 12:25:25;;;;;;;1.92;1.33;;;22.40;61.60;;;;;;6249369;28;20044;-71
2023/07/12 12:28:32;;;;;;;1.73;1.30;;;22.40;61.60;;;;;;6273615;28;20027;-70
2023/07/12 12:31:46;;;;;;;1.63;1.30;;;22.40;61.60;;;;;;6272463;28;20037;-71
2023/07/12 12:34:54;;;;;;;1.48;1.20;;;22.40;61.60;;;;;;6272895;28;20108;-71
2023/07/12 12:37:57;;;;;;;1.60;1.27;;;22.40;61.60;;;;;;6272246;28;20154;-71
2023/07/12 12:41:13;;;;;;;1.23;1.13;;;22.40;61.60;;;;;;6272578;28;20594;-70
2023/07/12 12:44:15;;;;;;;1.58;1.17;;;22.40;61.60;;;;;;6255540;28;20029;-71
2023/07/12 12:47:19;;;;;;;1.20;1.10;;;22.40;61.60;;;;;;6272157;28;20032;-71
2023/07/12 12:50:20;;;;;;;1.40;1.10;;;22.40;61.60;;;;;;6273521;28;20029;-72
2023/07/12 12:53:21;;;;;;;1.75;1.30;;;22.40;61.60;;;;;;6272516;28;20029;-71
2023/07/12 12:56:21;;;;;;;2.08;1.40;;;22.40;61.60;;;;;;6272143;28;20113;-71
2023/07/12 12:59:22;;;;;;;1.15;1.00;;;22.40;61.60;;;;;;6269375;28;20072;-71
2023/07/12 13:02:23;;;;;;;1.33;1.20;;;22.40;61.60;;;;;;6269352;28;20021;-71
2023/07/12 13:05:27;;;;;;;1.40;1.02;;;22.40;61.60;;;;;;6272153;28;20025;-71
2023/07/12 13:08:27;;;;;;;1.35;1.13;;;22.40;61.60;;;;;;6271001;28;20032;-71
2023/07/12 13:11:28;;;;;;;1.20;1.10;;;22.40;61.50;;;;;;6272472;28;20037;-71
2023/07/12 13:14:29;;;;;;;1.65;1.15;;;22.40;61.50;;;;;;6270924;28;20056;-71
2023/07/12 13:17:30;;;;;;;1.10;1.00;;;22.40;61.60;;;;;;6266664;28;20033;-71
2023/07/12 13:20:33;;;;;;;1.23;1.10;;;22.40;61.60;;;;;;6270839;28;20025;-71
2023/07/12 13:23:34;;;;;;;2.05;1.33;;;22.40;61.50;;;;;;6271115;28;20025;-71
2023/07/12 13:26:39;;;;;;;1.48;1.15;;;22.40;61.50;;;;;;6270659;28;20483;-71
2023/07/12 13:29:39;;;;;;;1.73;1.40;;;22.40;61.60;;;;;;6271102;28;20032;-70
2023/07/12 13:32:41;;;;;;;2.13;1.35;;;22.40;61.50;;;;;;6271802;28;20025;-71
2023/07/12 13:35:43;;;;;;;1.20;1.00;;;22.40;61.50;;;;;;6262850;28;21042;-71
2023/07/12 13:38:43;;;;;;;1.23;1.10;;;22.40;61.50;;;;;;6247653;28;20040;-71
2023/07/12 13:41:45;;;;;;;1.50;1.23;;;22.40;61.50;;;;;;6271413;28;20044;-71
2023/07/12 13:44:46;;;;;;;1.67;1.20;;;22.40;61.50;;;;;;6267517;28;20029;-71
2023/07/12 13:47:47;;;;;;;1.33;1.15;;;22.40;61.60;;;;;;6271777;28;20021;-72
2023/07/12 13:50:48;;;;;;;1.25;1.15;;;22.40;61.50;;;;;;6270862;28;20044;-70
2023/07/12 13:53:49;;;;;;;1.73;1.30;;;22.40;61.50;;;;;;6270502;28;20039;-71
2023/07/12 13:56:50;;;;;;;1.63;1.20;;;22.40;61.40;;;;;;6260307;28;20441;-71
2023/07/12 13:59:51;;;;;;;1.42;1.00;;;22.40;61.50;;;;;;6258775;28;20021;-71
2023/07/12 14:02:54;;;;;;;1.38;1.05;;;22.40;61.40;;;;;;6270671;28;20017;-71
2023/07/12 14:05:54;;;;;;;1.40;1.20;;;22.40;61.40;;;;;;6269833;28;20040;-70
2023/07/12 14:08:55;;;;;;;1.25;1.15;;;22.40;61.40;;;;;;6270399;28;20025;-71
2023/07/12 14:11:55;;;;;;;2.55;1.55;;;22.40;61.40;;;;;;6270823;28;20476;-71
2023/07/12 14:14:57;;;;;;;1.60;1.00;;;22.40;61.40;;;;;;6270244;28;20061;-70
2023/07/12 14:17:57;;;;;;;1.45;1.20;;;22.40;61.40;;;;;;6270322;28;20025;-71
2023/07/12 14:20:58;;;;;;;1.25;0.95;;;22.40;61.40;;;;;;6270605;28;20021;-71
2023/07/12 14:23:58;;;;;;;1.50;1.05;;;22.40;61.40;;;;;;6268108;28;20491;-70
2023/07/12 14:26:59;;;;;;;2.97;1.25;;;22.40;61.40;;;;;;6270522;28;20027;-70
2023/07/12 14:30:01;;;;;;;1.50;1.00;;;22.40;61.40;;;;;;6269916;28;20099;-70
2023/07/12 14:33:04;;;;;;;2.38;1.50;;;22.40;61.40;;;;;;6269989;28;20056;-71
2023/07/12 14:36:05;;;;;;;1.13;1.00;;;22.40;61.30;;;;;;6270016;28;20074;-70
2023/07/12 14:39:05;;;;;;;1.20;0.90;;;22.40;61.40;;;;;;6270314;28;20422;-71
2023/07/12 14:42:15;;;;;;;1.33;0.90;;;22.40;61.40;;;;;;6270048;28;20029;-72
2023/07/12 14:45:21;;;;;;;1.77;1.02;;;22.40;61.40;;;;;;6269254;28;20021;-72
2023/07/12 14:48:21;;;;;;;1.20;1.10;;;22.40;61.40;;;;;;6252367;28;20033;-72
2023/07/12 14:51:23;;;;;;;1.35;1.00;;;22.40;61.40;;;;;;6269848;28;20033;-70
2023/07/12 14:54:23;;;;;;;1.25;1.05;;;22.40;61.40;;;;;;6269338;28;20547;-74
2023/07/12 14:57:25;;;;;;;1.10;0.80;;;22.40;61.40;;;;;;6269423;28;20029;-72
2023/07/12 15:00:26;;;;;;;1.10;1.00;;;22.40;61.40;;;;;;6269291;28;20086;-72
2023/07/12 15:03:28;;;;;;;2.05;1.30;;;22.40;61.40;;;;;;6269578;28;20025;-72
2023/07/12 15:06:29;;;;;;;1.15;0.98;;;22.40;61.30;;;;;;6268726;28;20021;-72
2023/07/12 15:09:30;;;;;;;1.17;1.08;;;22.40;61.30;;;;;;6269871;28;20024;-72
2023/07/12 15:12:30;;;;;;;1.10;0.98;;;22.40;61.30;;;;;;6269904;28;20025;-72
2023/07/12 15:15:32;;;;;;;1.48;1.15;;;22.40;61.30;;;;;;6266107;28;20079;-73
2023/07/12 15:18:32;;;;;;;1.33;1.00;;;22.40;61.30;;;;;;6269513;28;20021;-72
2023/07/12 15:21:33;;;;;;;1.10;1.00;;;22.40;61.30;;;;;;6268905;28;20510;-72
2023/07/12 15:24:34;;;;;;;1.80;1.10;;;22.40;61.30;;;;;;6262575;28;20107;-71
2023/07/12 15:27:34;;;;;;;1.42;1.00;;;22.40;61.30;;;;;;6260475;28;20086;-70
2023/07/12 15:30:36;;;;;;;1.83;1.30;;;22.40;61.30;;;;;;6264473;28;20059;-72
2023/07/12 15:33:36;;;;;;;1.50;1.13;;;22.40;61.30;;;;;;6269486;28;20029;-73
2023/07/12 15:36:37;;;;;;;1.38;0.98;;;22.40;61.30;;;;;;6268971;28;20033;-72
2023/07/12 15:39:38;;;;;;;1.98;1.23;;;22.40;61.30;;;;;;6251581;28;20111;-72
2023/07/12 15:42:39;;;;;;;1.58;1.33;;;22.40;61.30;;;;;;6268921;28;20078;-73
2023/07/12 15:45:40;;;;;;;1.20;1.10;;;22.40;61.30;;;;;;6272739;28;20388;-73
2023/07/12 15:48:40;;;;;;;1.58;1.38;;;22.40;61.30;;;;;;6273774;28;20029;-70
2023/07/12 15:51:47;;;;;;;1.50;1.08;;;22.40;61.30;;;;;;6271003;28;20056;-70
2023/07/12 15:54:48;;;;;;;1.50;1.25;;;22.40;61.30;;;;;;6273493;28;20029;-72